Terminal Aerodrome Forecast
Issued by NWS

Home | Current Version | Previous Version | Graphics & Text | Print | Product List | Glossary On
Versions: 1 2 3 4 5 6 7 8 9 10 11 12 13
000
FTUS45 KGGW 221418 AAA
TAFSDY
TAF AMD
KSDY 221418Z 2214/2312 16012KT P6SM BKN017
     FM222100 20008KT P6SM SCT090
     FM230100 18004KT P6SM FEW140
     FM230900 24004KT P6SM BKN110=

USA.gov is the U.S. government's official web portal to all federal, state and local government web resources and services.